Time;durP1;ratioP1;P1;durP2;ratioP2;P2;SDS_P1;SDS_P2;PMS_P1;PMS_P2;Temp;Humidity;BMP_temperature;BMP_pressure;BME280_temperature;BME280_humidity;BME280_pressure;Samples;Min_cycle;Max_cycle;Signal;HPM_P1;HPM_P2
2021/05/25 00:00:16;;;;;;;2.55;1.67;;;15.30;75.10;;;;;;5074306;28;20020;-60
2021/05/25 00:02:47;;;;;;;2.58;1.50;;;15.30;75.40;;;;;;5075038;28;20036;-60
2021/05/25 00:05:27;;;;;;;3.35;1.60;;;15.30;75.40;;;;;;5074845;28;20020;-60
2021/05/25 00:07:54;;;;;;;3.60;1.70;;;15.30;75.30;;;;;;5074261;28;20438;-60
2021/05/25 00:10:22;;;;;;;3.35;1.77;;;15.20;75.10;;;;;;5074551;28;20032;-60
2021/05/25 00:12:48;;;;;;;2.40;1.65;;;15.20;75.20;;;;;;5075123;28;20789;-60
2021/05/25 00:15:17;;;;;;;3.72;1.80;;;15.20;75.20;;;;;;5073508;28;20031;-60
2021/05/25 00:17:43;;;;;;;2.28;1.60;;;15.10;75.20;;;;;;5074397;28;20081;-60
2021/05/25 00:20:11;;;;;;;2.47;1.65;;;15.10;75.20;;;;;;5074067;28;20028;-60
2021/05/25 00:22:38;;;;;;;6.90;1.65;;;15.10;75.10;;;;;;5074718;28;20028;-60
2021/05/25 00:25:08;;;;;;;1.13;1.02;;;15.10;75.10;;;;;;5074200;28;20036;-60
2021/05/25 00:27:34;;;;;;;2.95;1.80;;;15.00;74.90;;;;;;5073899;28;20036;-60
2021/05/25 00:30:00;;;;;;;2.60;1.92;;;15.00;75.00;;;;;;5074773;28;20032;-60
2021/05/25 00:32:25;;;;;;;3.70;2.22;;;14.90;75.20;;;;;;5074325;28;20150;-60
2021/05/25 00:34:51;;;;;;;3.17;2.13;;;14.90;75.20;;;;;;5073907;28;20468;-60
2021/05/25 00:37:17;;;;;;;2.60;1.80;;;14.80;75.30;;;;;;5072734;28;20526;-60
2021/05/25 00:39:43;;;;;;;3.75;0.98;;;14.80;75.30;;;;;;5074074;28;20021;-60
2021/05/25 00:42:08;;;;;;;4.20;1.33;;;14.80;75.30;;;;;;5073826;28;20029;-60
2021/05/25 00:44:34;;;;;;;2.30;1.63;;;14.70;75.40;;;;;;5074030;28;20054;-60
2021/05/25 00:47:00;;;;;;;2.45;1.40;;;14.70;75.70;;;;;;5074132;28;20041;-60
2021/05/25 00:49:25;;;;;;;4.70;0.93;;;14.60;75.80;;;;;;5073501;28;20033;-60
2021/05/25 00:51:51;;;;;;;1.48;0.90;;;14.60;75.90;;;;;;5073951;28;20082;-60
2021/05/25 00:54:17;;;;;;;0.68;0.68;;;14.50;76.10;;;;;;5074055;28;20074;-60
2021/05/25 00:56:42;;;;;;;0.68;0.68;;;14.40;76.30;;;;;;5073535;28;20059;-60
2021/05/25 00:59:20;;;;;;;1.60;0.75;;;14.40;76.50;;;;;;5073889;28;20128;-59
2021/05/25 01:01:46;;;;;;;0.75;0.60;;;14.30;76.80;;;;;;5073944;28;20353;-60
2021/05/25 01:04:12;;;;;;;0.70;0.57;;;14.20;77.00;;;;;;5073380;28;20031;-60
2021/05/25 01:06:37;;;;;;;0.75;0.60;;;14.20;77.10;;;;;;5073329;28;20379;-60
2021/05/25 01:09:04;;;;;;;1.98;0.75;;;14.10;77.20;;;;;;5073669;28;20052;-60
2021/05/25 01:11:33;;;;;;;1.10;0.90;;;14.10;77.30;;;;;;5073214;28;20115;-60
2021/05/25 01:14:00;;;;;;;0.88;0.68;;;14.10;77.50;;;;;;5073503;28;20033;-60
2021/05/25 01:16:27;;;;;;;1.35;1.05;;;14.10;77.50;;;;;;5072950;28;20165;-60
2021/05/25 01:18:54;;;;;;;0.35;0.32;;;14.10;77.60;;;;;;5073481;28;20119;-60
2021/05/25 01:21:21;;;;;;;1.13;0.65;;;14.00;77.50;;;;;;5073340;28;20037;-60
2021/05/25 01:23:47;;;;;;;1.38;1.08;;;14.00;77.50;;;;;;5072892;28;20032;-60
2021/05/25 01:26:15;;;;;;;1.15;1.05;;;14.00;77.70;;;;;;5073307;28;20024;-60
2021/05/25 01:28:41;;;;;;;3.28;1.30;;;14.00;77.60;;;;;;5072700;28;20654;-60
2021/05/25 01:31:07;;;;;;;1.15;1.05;;;14.00;77.70;;;;;;5072800;28;20491;-60
2021/05/25 01:33:37;;;;;;;1.25;0.95;;;14.00;77.60;;;;;;5072961;28;20032;-60
2021/05/25 01:36:05;;;;;;;1.20;0.77;;;14.00;77.80;;;;;;5073221;28;20483;-60
2021/05/25 01:38:31;;;;;;;0.57;0.57;;;13.90;77.50;;;;;;5072840;28;20040;-60
2021/05/25 01:40:57;;;;;;;1.00;1.00;;;13.90;77.50;;;;;;5072542;28;20111;-60
2021/05/25 01:43:24;;;;;;;1.33;1.00;;;14.00;77.50;;;;;;5071900;28;20120;-60
2021/05/25 01:45:50;;;;;;;1.20;1.10;;;14.00;77.40;;;;;;5072658;28;20107;-60
2021/05/25 01:48:17;;;;;;;0.77;0.70;;;14.00;77.40;;;;;;5072525;28;20051;-60
2021/05/25 01:50:44;;;;;;;2.83;1.30;;;14.00;77.30;;;;;;5073272;28;20020;-60
2021/05/25 01:53:17;;;;;;;0.82;0.82;;;14.00;77.30;;;;;;5072476;28;20086;-59
2021/05/25 01:55:51;;;;;;;1.30;1.20;;;14.00;77.30;;;;;;5072933;28;20150;-60
2021/05/25 01:58:29;;;;;;;1.95;1.40;;;13.90;77.20;;;;;;5072922;28;20075;-60
2021/05/25 02:00:58;;;;;;;1.20;1.02;;;13.90;77.30;;;;;;5072393;28;20082;-60
2021/05/25 02:03:24;;;;;;;2.10;1.30;;;13.90;77.20;;;;;;5070709;28;20379;-60
2021/05/25 02:05:50;;;;;;;1.40;1.10;;;13.90;77.20;;;;;;5067326;28;20115;-60
2021/05/25 02:08:17;;;;;;;3.45;1.33;;;13.90;77.10;;;;;;5071510;28;20055;-61
2021/05/25 02:10:45;;;;;;;3.40;1.42;;;13.90;77.10;;;;;;5072353;28;20428;-61
2021/05/25 02:13:19;;;;;;;0.93;0.93;;;13.90;77.10;;;;;;5071073;28;20482;-60
2021/05/25 02:15:51;;;;;;;0.88;0.88;;;13.90;77.10;;;;;;5072263;28;20104;-61
2021/05/25 02:18:22;;;;;;;1.85;1.27;;;13.80;77.00;;;;;;5071685;28;20434;-58
2021/05/25 02:20:50;;;;;;;3.35;0.95;;;13.90;77.10;;;;;;5071808;28;20021;-64
2021/05/25 02:23:16;;;;;;;5.30;1.52;;;13.90;77.00;;;;;;5072323;28;20047;-58
2021/05/25 02:25:44;;;;;;;1.45;1.02;;;13.80;77.00;;;;;;5071424;28;20531;-58
2021/05/25 02:28:11;;;;;;;1.63;1.20;;;13.80;77.00;;;;;;5071490;28;20036;-59
2021/05/25 02:30:38;;;;;;;1.23;0.82;;;13.80;77.00;;;;;;5071332;28;20020;-58
2021/05/25 02:33:07;;;;;;;4.57;1.65;;;13.80;77.10;;;;;;5071886;28;20384;-58
2021/05/25 02:35:33;;;;;;;0.30;0.30;;;13.70;77.30;;;;;;5071357;28;20129;-58
2021/05/25 02:37:59;;;;;;;1.88;1.27;;;13.70;77.20;;;;;;5071747;28;20035;-58
2021/05/25 02:40:25;;;;;;;0.60;0.60;;;13.70;77.30;;;;;;5073743;28;20025;-58
2021/05/25 02:42:52;;;;;;;1.92;1.60;;;13.60;77.30;;;;;;5072759;28;20034;-58
2021/05/25 02:45:18;;;;;;;1.02;0.73;;;13.60;77.50;;;;;;5074968;28;20021;-58
2021/05/25 02:47:44;;;;;;;1.38;1.00;;;13.60;77.50;;;;;;5068856;28;20045;-58
2021/05/25 02:50:11;;;;;;;4.55;1.25;;;13.50;77.50;;;;;;5064130;28;20020;-58
2021/05/25 02:52:39;;;;;;;1.33;1.10;;;13.50;77.60;;;;;;5063793;28;20071;-59
2021/05/25 02:55:07;;;;;;;1.42;1.33;;;13.50;77.70;;;;;;5069131;28;20041;-58
2021/05/25 02:57:33;;;;;;;2.28;1.30;;;13.50;77.90;;;;;;5057012;28;20028;-58
2021/05/25 02:59:58;;;;;;;0.88;0.85;;;13.40;77.90;;;;;;5073751;28;20360;-57
2021/05/25 03:02:24;;;;;;;1.80;1.35;;;13.30;77.90;;;;;;5065590;28;20036;-58
2021/05/25 03:04:50;;;;;;;1.08;0.90;;;13.30;78.10;;;;;;5060012;28;20487;-58
2021/05/25 03:07:15;;;;;;;2.22;1.40;;;13.30;78.30;;;;;;5057893;28;20107;-61
2021/05/25 03:09:41;;;;;;;1.67;0.77;;;13.20;78.30;;;;;;5068959;28;20090;-58
2021/05/25 03:12:07;;;;;;;0.55;0.50;;;13.10;78.20;;;;;;5074359;28;20136;-58
2021/05/25 03:14:33;;;;;;;0.30;0.30;;;13.10;78.20;;;;;;5063979;28;20523;-58
2021/05/25 03:16:59;;;;;;;4.22;0.90;;;13.00;78.10;;;;;;5073141;28;20033;-58
2021/05/25 03:19:25;;;;;;;4.00;0.95;;;13.00;78.10;;;;;;5075761;28;20020;-58
2021/05/25 03:21:52;;;;;;;3.40;1.45;;;13.00;78.10;;;;;;5075594;28;20521;-58
2021/05/25 03:24:19;;;;;;;5.45;0.93;;;13.00;78.10;;;;;;5075059;28;20025;-58
2021/05/25 03:26:45;;;;;;;0.95;0.60;;;13.00;78.10;;;;;;5075682;28;20495;-58
2021/05/25 03:29:11;;;;;;;0.43;0.43;;;13.00;78.00;;;;;;5075836;28;20123;-58
2021/05/25 03:31:36;;;;;;;0.40;0.40;;;12.90;77.80;;;;;;5075320;28;20040;-58
2021/05/25 03:34:03;;;;;;;0.50;0.50;;;12.90;77.70;;;;;;5075322;28;20214;-58
2021/05/25 03:36:30;;;;;;;0.25;0.20;;;12.80;77.60;;;;;;5075626;28;20031;-60
2021/05/25 03:38:55;;;;;;;1.52;0.95;;;12.80;77.70;;;;;;5074898;28;20056;-60
2021/05/25 03:41:21;;;;;;;1.40;0.60;;;12.80;77.60;;;;;;5075469;28;20120;-60
2021/05/25 03:43:47;;;;;;;0.47;0.40;;;12.80;77.70;;;;;;5075390;28;20029;-60
2021/05/25 03:46:13;;;;;;;0.52;0.47;;;12.80;77.70;;;;;;5075009;28;20448;-60
2021/05/25 03:48:39;;;;;;;2.97;0.70;;;12.80;77.70;;;;;;5075084;28;20037;-60
2021/05/25 03:51:05;;;;;;;0.65;0.38;;;12.80;77.60;;;;;;5074540;28;20099;-60
2021/05/25 03:53:31;;;;;;;1.33;0.55;;;12.80;77.60;;;;;;5075053;28;20056;-60
2021/05/25 03:56:25;;;;;;;1.30;0.70;;;12.80;77.40;;;;;;5075199;28;20028;-60
2021/05/25 04:01:23;;;;;;;1.08;0.55;;;12.90;77.30;;;;;;5074753;28;20156;-60
2021/05/25 04:03:53;;;;;;;0.73;0.57;;;12.80;77.30;;;;;;5075084;28;20020;-60
2021/05/25 04:06:19;;;;;;;0.70;0.60;;;12.80;77.20;;;;;;5074515;28;20094;-60
2021/05/25 04:08:45;;;;;;;0.88;0.73;;;12.80;77.80;;;;;;5074675;28;20094;-60
2021/05/25 04:11:12;;;;;;;1.38;0.55;;;12.70;77.10;;;;;;5074644;28;20043;-60
2021/05/25 04:13:39;;;;;;;0.47;0.47;;;12.80;77.10;;;;;;5074508;28;20082;-60
2021/05/25 04:16:08;;;;;;;1.95;0.60;;;12.80;77.00;;;;;;5074655;28;20039;-60
2021/05/25 04:18:34;;;;;;;0.32;0.32;;;12.80;77.00;;;;;;5074600;28;20028;-60
2021/05/25 04:20:59;;;;;;;2.55;0.63;;;12.70;76.80;;;;;;5074226;28;20039;-60
2021/05/25 04:23:25;;;;;;;1.63;0.60;;;12.80;76.90;;;;;;5074513;28;20028;-58
2021/05/25 04:25:51;;;;;;;0.50;0.50;;;12.70;76.80;;;;;;5074890;28;20112;-59
2021/05/25 04:28:17;;;;;;;0.43;0.43;;;12.70;76.80;;;;;;5073911;28;20123;-58
2021/05/25 04:30:44;;;;;;;1.55;0.95;;;12.70;76.80;;;;;;5073140;28;20024;-58
2021/05/25 04:33:09;;;;;;;0.55;0.30;;;12.70;76.90;;;;;;5074930;28;20569;-58
2021/05/25 04:35:35;;;;;;;0.60;0.52;;;12.70;76.80;;;;;;5073981;28;20016;-58
2021/05/25 04:38:02;;;;;;;2.45;0.65;;;12.60;76.90;;;;;;5074480;28;20483;-58
2021/05/25 04:40:28;;;;;;;0.20;0.20;;;12.60;76.90;;;;;;5073681;28;20405;-58
2021/05/25 04:42:54;;;;;;;0.17;0.17;;;12.60;76.90;;;;;;5074054;28;20048;-58
2021/05/25 04:45:20;;;;;;;0.50;0.50;;;12.60;77.00;;;;;;5074163;28;20033;-58
2021/05/25 04:47:46;;;;;;;0.98;0.45;;;12.60;77.00;;;;;;5073654;28;20048;-58
2021/05/25 04:50:13;;;;;;;0.68;0.57;;;12.50;77.00;;;;;;5073623;28;20055;-58
2021/05/25 04:52:39;;;;;;;1.75;0.50;;;12.50;77.10;;;;;;5074043;28;20036;-60
2021/05/25 04:55:12;;;;;;;2.83;0.47;;;12.50;77.20;;;;;;5073545;28;20025;-60
2021/05/25 04:57:38;;;;;;;0.98;0.70;;;12.40;77.20;;;;;;5073837;28;20566;-60
2021/05/25 05:00:06;;;;;;;0.90;0.60;;;12.50;77.40;;;;;;5073947;28;20020;-60
2021/05/25 05:02:32;;;;;;;2.38;0.75;;;12.40;77.40;;;;;;5072790;28;20028;-60
2021/05/25 05:04:57;;;;;;;2.10;1.33;;;12.50;77.40;;;;;;5073689;28;20124;-60
2021/05/25 05:07:23;;;;;;;0.45;0.45;;;12.40;77.50;;;;;;5073806;28;20040;-60
2021/05/25 05:09:49;;;;;;;0.90;0.88;;;12.40;77.50;;;;;;5072911;28;20128;-60
2021/05/25 05:12:14;;;;;;;0.63;0.63;;;12.40;77.50;;;;;;5073487;28;20028;-61
2021/05/25 05:14:40;;;;;;;0.32;0.32;;;12.40;77.60;;;;;;5073210;28;20032;-60
2021/05/25 05:17:06;;;;;;;2.55;1.73;;;12.40;77.70;;;;;;5072563;28;20054;-60
2021/05/25 05:19:32;;;;;;;1.27;0.40;;;12.40;77.80;;;;;;5056794;28;20036;-60
2021/05/25 05:21:58;;;;;;;0.70;0.65;;;12.30;77.80;;;;;;5061068;28;20052;-61
2021/05/25 05:24:23;;;;;;;0.73;0.52;;;12.30;77.90;;;;;;5063755;28;20075;-61
2021/05/25 05:26:49;;;;;;;1.23;0.70;;;12.30;78.00;;;;;;5071255;28;20115;-60
2021/05/25 05:29:14;;;;;;;0.98;0.57;;;12.30;78.10;;;;;;5070834;28;20031;-60
2021/05/25 05:31:40;;;;;;;0.20;0.20;;;12.20;78.10;;;;;;5069237;28;20380;-61
2021/05/25 05:34:06;;;;;;;0.30;0.30;;;12.20;78.20;;;;;;5072092;28;20418;-60
2021/05/25 05:36:32;;;;;;;0.32;0.32;;;12.20;78.30;;;;;;5068737;28;20033;-61
2021/05/25 05:38:58;;;;;;;0.10;0.10;;;12.20;78.40;;;;;;5071267;28;20016;-60
2021/05/25 05:41:24;;;;;;;0.40;0.40;;;12.20;78.50;;;;;;5072079;28;20365;-61
2021/05/25 05:43:49;;;;;;;0.88;0.73;;;12.20;78.50;;;;;;5061644;28;20078;-61
2021/05/25 05:46:16;;;;;;;1.02;0.77;;;12.20;78.70;;;;;;5071872;28;20108;-60
2021/05/25 05:48:41;;;;;;;0.28;0.28;;;12.20;78.70;;;;;;5072264;28;20040;-60
2021/05/25 05:51:07;;;;;;;0.82;0.82;;;12.10;78.90;;;;;;5072424;28;20365;-60
2021/05/25 05:53:33;;;;;;;0.50;0.50;;;12.10;79.10;;;;;;5069504;28;20158;-60
2021/05/25 05:55:59;;;;;;;0.30;0.30;;;12.10;79.20;;;;;;5068116;28;20485;-61
2021/05/25 05:58:25;;;;;;;0.22;0.22;;;12.10;79.30;;;;;;5071757;28;20100;-61
2021/05/25 06:00:50;;;;;;;1.45;0.68;;;12.10;79.30;;;;;;5072290;28;20024;-60
2021/05/25 06:03:16;;;;;;;0.30;0.30;;;12.10;79.40;;;;;;5067123;28;20029;-61
2021/05/25 06:05:42;;;;;;;0.30;0.30;;;12.10;79.50;;;;;;5058121;28;20491;-61
2021/05/25 06:08:09;;;;;;;0.80;0.40;;;12.10;79.50;;;;;;5051433;28;20053;-60
2021/05/25 06:10:37;;;;;;;0.93;0.60;;;12.10;79.70;;;;;;5054546;28;20021;-60
2021/05/25 06:13:03;;;;;;;0.60;0.60;;;12.00;79.80;;;;;;5056829;28;21475;-60
2021/05/25 06:15:29;;;;;;;0.40;0.40;;;12.00;79.90;;;;;;5065195;28;20028;-60
2021/05/25 06:17:55;;;;;;;0.17;0.17;;;12.00;79.90;;;;;;5063766;28;20405;-62
2021/05/25 06:20:21;;;;;;;0.80;0.63;;;12.10;80.00;;;;;;5065784;28;20039;-67
2021/05/25 06:22:47;;;;;;;1.08;0.50;;;12.00;80.10;;;;;;5071302;28;20028;-61
2021/05/25 06:25:14;;;;;;;0.22;0.22;;;12.10;80.10;;;;;;5070598;28;20028;-61
2021/05/25 06:27:40;;;;;;;0.45;0.45;;;12.00;80.30;;;;;;5069251;28;20406;-61
2021/05/25 06:30:08;;;;;;;0.80;0.30;;;12.00;80.30;;;;;;5064600;28;20082;-61
2021/05/25 06:32:37;;;;;;;0.82;0.50;;;12.00;80.40;;;;;;5062425;28;20024;-67
2021/05/25 06:35:05;;;;;;;0.30;0.30;;;12.00;80.40;;;;;;5063668;28;20044;-61
2021/05/25 06:37:31;;;;;;;0.30;0.30;;;12.00;80.40;;;;;;5067988;28;20389;-61
2021/05/25 06:39:57;;;;;;;0.77;0.45;;;12.00;80.40;;;;;;5060965;28;20054;-61
2021/05/25 06:42:22;;;;;;;1.00;0.50;;;12.00;80.50;;;;;;5067883;28;20484;-61
2021/05/25 06:44:48;;;;;;;0.45;0.30;;;12.00;80.50;;;;;;5062338;28;20082;-61
2021/05/25 06:47:14;;;;;;;0.30;0.30;;;12.00;80.50;;;;;;5057722;28;20057;-60
2021/05/25 06:49:40;;;;;;;0.50;0.50;;;12.00;80.70;;;;;;5064470;28;20028;-61
2021/05/25 06:52:10;;;;;;;1.20;0.38;;;12.00;80.70;;;;;;5071754;28;20086;-61
2021/05/25 06:54:36;;;;;;;1.02;0.52;;;12.00;80.90;;;;;;5071365;28;20410;-61
2021/05/25 06:57:01;;;;;;;1.75;0.50;;;12.00;80.90;;;;;;5070042;28;20131;-62
2021/05/25 06:59:27;;;;;;;0.43;0.43;;;12.00;81.10;;;;;;5071781;28;20468;-68
2021/05/25 07:01:53;;;;;;;0.60;0.60;;;12.00;81.10;;;;;;5058170;28;20044;-61
2021/05/25 07:04:20;;;;;;;1.27;0.73;;;12.00;81.00;;;;;;5069824;28;20029;-61
2021/05/25 07:06:46;;;;;;;0.55;0.47;;;12.00;81.20;;;;;;5066447;28;20037;-61
2021/05/25 07:09:12;;;;;;;0.47;0.43;;;12.00;81.30;;;;;;5068911;28;20510;-62
2021/05/25 07:11:38;;;;;;;1.40;0.50;;;12.10;81.50;;;;;;5055757;28;20012;-61
2021/05/25 07:14:04;;;;;;;1.15;0.60;;;12.10;81.50;;;;;;5060914;28;20094;-62
2021/05/25 07:16:30;;;;;;;0.20;0.20;;;12.10;81.40;;;;;;5063288;28;20115;-63
2021/05/25 07:18:58;;;;;;;0.40;0.40;;;12.10;81.30;;;;;;5057499;28;20104;-62
2021/05/25 07:21:23;;;;;;;1.33;0.40;;;12.10;81.30;;;;;;5053416;28;20025;-61
2021/05/25 07:23:50;;;;;;;0.80;0.45;;;12.10;81.40;;;;;;5059051;28;20048;-61
2021/05/25 07:26:16;;;;;;;2.78;0.82;;;12.20;81.60;;;;;;5066322;28;20135;-61
2021/05/25 07:28:42;;;;;;;0.50;0.50;;;12.10;81.40;;;;;;5070582;28;20101;-61
2021/05/25 07:31:08;;;;;;;0.40;0.40;;;12.20;81.50;;;;;;5073064;28;20352;-62
2021/05/25 07:33:34;;;;;;;0.40;0.38;;;12.10;81.30;;;;;;5074183;28;20024;-62
2021/05/25 07:35:59;;;;;;;0.68;0.45;;;12.20;81.10;;;;;;5064114;28;20419;-62
2021/05/25 07:38:25;;;;;;;0.40;0.40;;;12.20;81.80;;;;;;5072249;28;20036;-61
2021/05/25 07:40:51;;;;;;;1.23;0.60;;;12.20;81.10;;;;;;5065984;28;20025;-61
2021/05/25 07:43:17;;;;;;;0.40;0.40;;;12.20;81.00;;;;;;5071129;28;20052;-62
2021/05/25 07:45:44;;;;;;;0.40;0.40;;;12.20;81.00;;;;;;5063719;28;20491;-61
2021/05/25 07:48:10;;;;;;;1.17;0.40;;;12.20;81.20;;;;;;5059236;28;20040;-61
2021/05/25 07:50:36;;;;;;;0.50;0.50;;;12.20;81.30;;;;;;5059251;28;20032;-61
2021/05/25 07:53:02;;;;;;;1.20;0.55;;;12.20;81.20;;;;;;5057455;28;20035;-61
2021/05/25 07:55:31;;;;;;;0.28;0.28;;;12.30;81.20;;;;;;5067455;28;20428;-61
2021/05/25 07:57:57;;;;;;;1.95;0.60;;;12.30;81.10;;;;;;5063839;28;20040;-61
2021/05/25 08:00:26;;;;;;;1.08;0.50;;;12.30;81.10;;;;;;5055547;28;20067;-61
2021/05/25 08:02:52;;;;;;;1.60;0.82;;;12.40;81.10;;;;;;5071563;28;20055;-59
2021/05/25 08:05:18;;;;;;;2.58;0.47;;;12.40;81.00;;;;;;5068135;28;20024;-59
2021/05/25 08:07:45;;;;;;;0.60;0.60;;;12.50;81.00;;;;;;5072930;28;20464;-62
2021/05/25 08:10:14;;;;;;;0.30;0.30;;;12.50;81.00;;;;;;5071479;28;20040;-59
2021/05/25 08:12:40;;;;;;;0.57;0.50;;;12.50;80.90;;;;;;5062956;28;20059;-62
2021/05/25 08:15:07;;;;;;;0.45;0.45;;;12.50;80.60;;;;;;5060264;28;20054;-61
2021/05/25 08:20:19;;;;;;;0.82;0.60;;;12.50;80.50;;;;;;5072175;28;20025;-59
2021/05/25 08:22:50;;;;;;;0.57;0.50;;;12.50;80.40;;;;;;5073231;28;20082;-59
2021/05/25 08:25:18;;;;;;;0.30;0.30;;;12.50;80.30;;;;;;5072707;28;20109;-59
2021/05/25 08:27:46;;;;;;;0.65;0.65;;;12.50;80.30;;;;;;5071867;28;20078;-61
2021/05/25 08:30:14;;;;;;;0.40;0.40;;;12.50;80.40;;;;;;5072657;28;20549;-59
2021/05/25 08:32:40;;;;;;;0.75;0.70;;;12.50;80.20;;;;;;5063769;28;20460;-59
2021/05/25 08:35:06;;;;;;;0.77;0.57;;;12.50;80.20;;;;;;5070562;28;20025;-59
2021/05/25 08:37:33;;;;;;;0.50;0.50;;;12.60;80.40;;;;;;5069562;28;20033;-61
2021/05/25 08:39:59;;;;;;;0.90;0.60;;;12.50;80.50;;;;;;5071862;28;20488;-62
2021/05/25 08:42:25;;;;;;;1.02;0.70;;;12.60;80.90;;;;;;5063413;28;20035;-62
2021/05/25 08:44:51;;;;;;;1.85;0.55;;;12.50;80.90;;;;;;5072882;28;20036;-61
2021/05/25 08:47:17;;;;;;;0.40;0.40;;;12.50;81.10;;;;;;5064318;28;20036;-61
2021/05/25 08:49:45;;;;;;;0.68;0.68;;;12.50;81.30;;;;;;5072682;28;20035;-62
2021/05/25 08:52:12;;;;;;;0.57;0.57;;;12.50;81.40;;;;;;5065772;28;20021;-62
2021/05/25 08:54:41;;;;;;;1.38;0.80;;;12.50;81.60;;;;;;5070569;28;20526;-61
2021/05/25 08:57:07;;;;;;;0.80;0.50;;;12.50;81.80;;;;;;5072106;28;20024;-61
2021/05/25 08:59:33;;;;;;;0.47;0.47;;;12.60;81.80;;;;;;5072168;28;20494;-62
2021/05/25 09:02:00;;;;;;;1.05;0.75;;;12.50;81.60;;;;;;5067459;28;20024;-62
2021/05/25 09:04:25;;;;;;;0.85;0.80;;;12.60;81.80;;;;;;5072381;28;20033;-63
2021/05/25 09:06:51;;;;;;;1.65;0.60;;;12.50;81.80;;;;;;5072094;28;20123;-61
2021/05/25 09:09:20;;;;;;;0.40;0.30;;;12.60;82.00;;;;;;5058817;28;20048;-59
2021/05/25 09:12:10;;;;;;;0.45;0.40;;;12.60;82.00;;;;;;5070833;28;20112;-58
2021/05/25 09:14:49;;;;;;;0.50;0.40;;;12.50;81.80;;;;;;5071889;28;20357;-59
2021/05/25 09:17:23;;;;;;;5.45;0.68;;;12.50;81.80;;;;;;5061824;28;20042;-59
2021/05/25 09:19:57;;;;;;;2.00;0.65;;;12.50;81.70;;;;;;5064559;28;20101;-59
2021/05/25 09:22:29;;;;;;;0.28;0.28;;;12.50;81.80;;;;;;5057650;28;20475;-59
2021/05/25 09:24:57;;;;;;;0.43;0.43;;;12.50;82.00;;;;;;5063608;28;20037;-59
2021/05/25 09:27:38;;;;;;;0.20;0.20;;;12.50;81.80;;;;;;5066845;28;20036;-59
2021/05/25 09:30:22;;;;;;;1.00;0.50;;;12.50;81.90;;;;;;5060521;28;20059;-59
2021/05/25 09:32:55;;;;;;;0.65;0.65;;;12.50;81.80;;;;;;5065129;28;20040;-59
2021/05/25 09:35:23;;;;;;;0.40;0.40;;;12.50;81.80;;;;;;5068410;28;20040;-59
2021/05/25 09:37:54;;;;;;;0.55;0.55;;;12.60;81.80;;;;;;5067428;28;20020;-59
2021/05/25 09:40:24;;;;;;;0.57;0.47;;;12.60;81.70;;;;;;5068859;28;20219;-59
2021/05/25 09:42:56;;;;;;;1.13;0.50;;;12.60;81.50;;;;;;5065743;28;20041;-59
2021/05/25 09:45:22;;;;;;;0.30;0.30;;;12.60;81.30;;;;;;5059614;28;20476;-59
2021/05/25 09:47:53;;;;;;;0.40;0.40;;;12.60;81.30;;;;;;5060919;28;20043;-59
2021/05/25 09:50:23;;;;;;;0.20;0.20;;;12.60;81.20;;;;;;5065475;28;20032;-59
2021/05/25 09:53:05;;;;;;;0.68;0.50;;;12.60;81.00;;;;;;5069531;28;20028;-59
2021/05/25 09:55:33;;;;;;;1.35;0.40;;;12.60;81.20;;;;;;5070819;28;20032;-59
2021/05/25 09:57:59;;;;;;;0.20;0.20;;;12.70;81.20;;;;;;5060048;28;20480;-59
2021/05/25 10:00:26;;;;;;;1.23;0.50;;;12.60;81.10;;;;;;5056188;28;20120;-59
2021/05/25 10:03:10;;;;;;;0.47;0.47;;;12.60;80.90;;;;;;5057575;28;20065;-59
2021/05/25 10:05:37;;;;;;;1.25;0.38;;;12.60;80.70;;;;;;5063563;28;20040;-59
2021/05/25 10:08:04;;;;;;;0.28;0.28;;;12.60;80.70;;;;;;5058183;28;20037;-59
2021/05/25 10:10:31;;;;;;;0.40;0.40;;;12.60;80.90;;;;;;5054118;28;20028;-59
2021/05/25 10:12:58;;;;;;;0.40;0.30;;;12.60;81.10;;;;;;5053176;28;20107;-59
2021/05/25 10:15:26;;;;;;;1.45;0.40;;;12.60;81.00;;;;;;5064566;28;20115;-59
2021/05/25 10:18:09;;;;;;;0.50;0.47;;;12.60;81.00;;;;;;5055705;28;20163;-60
2021/05/25 10:20:35;;;;;;;0.20;0.20;;;12.60;80.90;;;;;;5051189;28;20100;-60
2021/05/25 10:23:00;;;;;;;0.30;0.30;;;12.60;80.90;;;;;;5052070;28;20043;-59
2021/05/25 10:25:31;;;;;;;0.20;0.20;;;12.60;81.00;;;;;;5057135;28;20357;-68
2021/05/25 10:27:58;;;;;;;0.20;0.20;;;12.60;81.20;;;;;;5055637;28;20139;-59
2021/05/25 10:30:24;;;;;;;0.68;0.30;;;12.60;81.20;;;;;;5067024;28;20438;-59
2021/05/25 10:33:09;;;;;;;0.55;0.55;;;12.60;81.20;;;;;;5069348;28;20115;-59
2021/05/25 10:35:51;;;;;;;0.40;0.38;;;12.60;81.20;;;;;;5066904;28;20029;-64
2021/05/25 10:38:21;;;;;;;0.45;0.45;;;12.60;81.20;;;;;;5069644;28;20396;-60
2021/05/25 10:41:06;;;;;;;0.63;0.50;;;12.60;81.20;;;;;;5069413;28;20153;-59
2021/05/25 10:43:32;;;;;;;1.15;0.43;;;12.60;81.30;;;;;;5069600;28;20032;-59
2021/05/25 10:46:10;;;;;;;0.47;0.30;;;12.60;81.50;;;;;;5062852;28;20125;-59
2021/05/25 10:49:05;;;;;;;1.15;0.70;;;12.60;81.60;;;;;;5058934;28;20472;-60
2021/05/25 10:51:48;;;;;;;0.80;0.50;;;12.60;81.70;;;;;;5064857;28;20036;-59
2021/05/25 10:54:44;;;;;;;0.98;0.70;;;12.60;81.70;;;;;;5066969;28;20032;-59
2021/05/25 10:57:31;;;;;;;0.63;0.60;;;12.50;81.70;;;;;;5069326;28;20027;-59
2021/05/25 11:00:05;;;;;;;20.92;1.25;;;12.60;81.80;;;;;;5070041;28;20036;-59
2021/05/25 11:02:50;;;;;;;0.95;0.80;;;12.50;81.90;;;;;;5067375;28;20055;-60
2021/05/25 11:05:31;;;;;;;0.38;0.30;;;12.60;82.10;;;;;;5072549;28;20028;-59
2021/05/25 11:08:08;;;;;;;2.17;0.45;;;12.60;82.10;;;;;;5071613;28;20036;-59
2021/05/25 11:11:10;;;;;;;0.32;0.32;;;12.60;82.10;;;;;;5073060;28;20055;-59
2021/05/25 11:13:43;;;;;;;0.43;0.40;;;12.60;82.10;;;;;;5049757;28;20043;-59
2021/05/25 11:24:26;;;;;;;0.57;0.57;;;12.50;82.20;;;;;;5072092;28;20464;-59
2021/05/25 11:27:12;;;;;;;2.63;0.93;;;12.60;82.30;;;;;;5072347;28;20037;-59
2021/05/25 11:29:49;;;;;;;0.50;0.50;;;12.60;82.30;;;;;;5072119;28;20032;-59
2021/05/25 11:32:35;;;;;;;1.27;0.93;;;12.60;82.40;;;;;;5068614;28;20035;-59
2021/05/25 11:35:07;;;;;;;0.75;0.75;;;12.60;82.50;;;;;;5061537;28;20380;-59
2021/05/25 11:37:44;;;;;;;1.17;0.57;;;12.60;82.60;;;;;;5067390;28;20053;-59
2021/05/25 11:40:14;;;;;;;0.90;0.70;;;12.50;82.50;;;;;;5070066;28;20028;-59
2021/05/25 11:42:41;;;;;;;1.63;0.80;;;12.50;82.60;;;;;;5061183;28;20465;-59
2021/05/25 11:45:09;;;;;;;0.88;0.82;;;12.50;82.60;;;;;;5072119;28;20107;-59
2021/05/25 11:47:35;;;;;;;1.40;0.95;;;12.50;82.70;;;;;;5072442;28;20064;-59
2021/05/25 11:50:01;;;;;;;1.73;0.70;;;12.50;82.70;;;;;;5071166;28;20379;-59
2021/05/25 11:52:39;;;;;;;1.52;0.90;;;12.50;82.80;;;;;;5072270;28;20036;-59
2021/05/25 11:55:08;;;;;;;0.52;0.52;;;12.50;82.90;;;;;;5071132;28;20166;-59
2021/05/25 11:57:48;;;;;;;0.80;0.65;;;12.50;82.90;;;;;;5064003;28;20036;-59
2021/05/25 12:00:20;;;;;;;0.85;0.70;;;12.50;83.00;;;;;;5066127;28;20102;-59
2021/05/25 12:02:52;;;;;;;2.70;1.38;;;12.50;83.00;;;;;;5066924;28;20025;-59
2021/05/25 12:05:21;;;;;;;0.93;0.88;;;12.50;83.00;;;;;;5071220;28;20106;-59
2021/05/25 12:07:58;;;;;;;0.77;0.63;;;12.50;83.00;;;;;;5067055;28;20388;-59
2021/05/25 12:10:28;;;;;;;0.55;0.47;;;12.50;83.00;;;;;;5061091;28;20040;-59
2021/05/25 12:13:01;;;;;;;4.70;1.92;;;12.60;83.00;;;;;;5056423;28;20075;-59
2021/05/25 12:15:27;;;;;;;1.15;0.75;;;12.60;83.00;;;;;;5071362;28;20056;-61
2021/05/25 12:18:12;;;;;;;0.20;0.20;;;12.70;83.10;;;;;;5067751;28;20063;-58
2021/05/25 12:20:44;;;;;;;3.10;0.73;;;12.70;83.20;;;;;;5058670;28;20035;-59
2021/05/25 12:23:13;;;;;;;1.87;1.00;;;12.70;83.10;;;;;;5063583;28;20033;-59
2021/05/25 12:25:40;;;;;;;1.10;0.60;;;12.80;83.10;;;;;;5063113;28;20025;-59
2021/05/25 12:28:13;;;;;;;2.50;1.02;;;12.80;82.90;;;;;;5059098;28;20047;-59
2021/05/25 12:30:45;;;;;;;4.18;0.68;;;12.90;82.90;;;;;;5064244;28;20107;-59
2021/05/25 12:33:21;;;;;;;0.98;0.80;;;12.90;82.50;;;;;;5057055;28;20048;-59
2021/05/25 12:35:48;;;;;;;0.47;0.47;;;13.00;82.50;;;;;;5058215;28;20106;-59
2021/05/25 12:38:17;;;;;;;0.73;0.73;;;13.00;82.60;;;;;;5058266;28;20158;-59
2021/05/25 12:40:55;;;;;;;4.10;1.05;;;13.00;82.60;;;;;;5057445;28;20097;-59
2021/05/25 12:43:24;;;;;;;0.57;0.57;;;13.00;82.50;;;;;;5065394;28;20488;-59
2021/05/25 12:45:51;;;;;;;0.30;0.30;;;13.00;82.50;;;;;;5057762;28;20515;-59
2021/05/25 12:48:19;;;;;;;2.05;0.73;;;13.00;82.50;;;;;;5058471;28;20033;-59
2021/05/25 12:50:46;;;;;;;0.57;0.35;;;13.00;82.50;;;;;;5067939;28;20488;-59
2021/05/25 12:53:19;;;;;;;1.83;0.80;;;13.10;82.60;;;;;;5070491;28;20036;-59
2021/05/25 12:55:50;;;;;;;1.00;0.93;;;13.10;82.50;;;;;;5072186;28;20040;-59
2021/05/25 12:58:32;;;;;;;0.88;0.68;;;13.10;82.40;;;;;;5072031;28;20387;-60
2021/05/25 13:00:59;;;;;;;1.23;0.82;;;13.20;82.30;;;;;;5070270;28;20476;-59
2021/05/25 13:03:27;;;;;;;4.53;0.85;;;13.20;82.30;;;;;;5072045;28;20020;-59
2021/05/25 13:06:14;;;;;;;3.13;0.90;;;13.20;82.30;;;;;;5071807;28;20157;-59
2021/05/25 13:08:41;;;;;;;3.35;1.20;;;13.30;82.30;;;;;;5062250;28;20095;-58